Eships Dana — ZDJT6 — position and weather

sailwx.info

Track history (hours):
 
Tides and Currents Weather Stations Pressure Air Temp Water Temp Dewpoint Dewpoint Depression Visibility Wind Speed Wind Dir Waves Ship Positions

Eships Dana

Last reported at 2016-Sep-30 22:08 UTC. Time now 2016-Sep-30 23:50 UTC.
Position N 49°37' W 003°49'.

Length 116 m; draft 5.7 m.

Type: Ship (hazmat cat A). MMSI: 236566000.

Date/timePositionNaut miles runAvg speedWind from/ knotsBaromVisibWave heightAir tempDewpointWater temp
2016-Sep-30 22:08N 49°37' W 003°49'2314.3
2016-Sep-30 20:33N 49°50' W 003°20'9213.0
2016-Sep-30 13:27N 49°47' W 000°57'4214.5
2016-Sep-30 10:33N 49°30' E 000°02'7 3.3
2016-Sep-30 08:33N 49°29' E 000°12'0 0.0
2016-Sep-30 06:33N 49°29' E 000°12'0 0.0
2016-Sep-30 03:33N 49°29' E 000°12'0 0.0
2016-Sep-30 02:33N 49°29' E 000°12'0 0.0
2016-Sep-29 23:33N 49°29' E 000°12'0 0.0
2016-Sep-29 21:33N 49°29' E 000°12'0 0.0
2016-Sep-29 20:33N 49°29' E 000°12'0 0.0
2016-Sep-29 19:33N 49°29' E 000°12'0 0.0
2016-Sep-29 16:33N 49°29' E 000°12'0 0.0
2016-Sep-29 15:33N 49°29' E 000°12'0 0.0
2016-Sep-29 14:33N 49°29' E 000°12'0 0.0
2016-Sep-29 13:33N 49°29' E 000°12'0 0.0
2016-Sep-29 08:33N 49°29' E 000°12'0 0.0
2016-Sep-29 07:33N 49°29' E 000°12'0 0.0
2016-Sep-29 00:33N 49°29' E 000°12'0 0.0
2016-Sep-28 21:33N 49°29' E 000°12'1 0.6
2016-Sep-28 19:33N 49°29' E 000°10'28 9.4
2016-Sep-28 16:33N 49°38' W 000°31'1515.1
2016-Sep-28 15:33N 49°45' W 000°51'3812.6
2016-Sep-28 12:34N 49°56' W 001°47'5012.5
2016-Sep-28 08:33N 49°44' W 003°03'7615.2
2016-Sep-28 03:33N 49°06' W 004°43'1616.0
2016-Sep-28 02:33N 48°58' W 005°05'1616.1
2016-Sep-28 01:33N 48°51' W 005°26'2914.3
2016-Sep-27 23:33N 48°25' W 005°45'5714.3
2016-Sep-27 19:33N 47°39' W 004°54'6312.5
2016-Sep-27 14:33N 47°10' W 003°32'1313.2
2016-Sep-27 13:33N 47°07' W 003°13'3611.8
2016-Sep-27 10:32N 47°08' W 002°21'15 1.1
2016-Sep-26 20:21N 47°18' W 002°04'0 0.0
2016-Sep-26 19:12N 47°18' W 002°04'0 0.0
2016-Sep-26 15:33N 47°18' W 002°04'0 0.0
2016-Sep-26 08:30N 47°18' W 002°04'0 0.0
2016-Sep-26 02:30N 47°18' W 002°04'0 0.0
2016-Sep-26 01:33N 47°18' W 002°04'0 0.0
2016-Sep-26 00:30N 47°18' W 002°04'0 0.0
2016-Sep-25 21:33N 47°18' W 002°04'0 0.0
2016-Sep-25 17:30N 47°18' W 002°04'0 0.0
2016-Sep-25 15:30N 47°18' W 002°04'0 0.0
2016-Sep-25 12:30N 47°18' W 002°04'0 0.0
2016-Sep-25 11:30N 47°18' W 002°04'0 0.0
2016-Sep-25 10:30N 47°18' W 002°04'0 0.0
2016-Sep-25 09:27N 47°18' W 002°04'0 0.0
2016-Sep-25 07:30N 47°18' W 002°04'0 0.0
2016-Sep-25 04:33N 47°18' W 002°04'0 0.0
2016-Sep-25 00:33N 47°18' W 002°04'0 0.0
2016-Sep-24 22:24N 47°18' W 002°04'0 0.0
2016-Sep-24 21:32N 47°18' W 002°04'0 0.0
2016-Sep-24 19:24N 47°18' W 002°04'0 0.0
2016-Sep-24 18:33N 47°18' W 002°04'0 0.0
2016-Sep-24 17:30N 47°18' W 002°04'0 0.0
2016-Sep-24 16:30N 47°18' W 002°04'0 0.0
2016-Sep-24 14:30N 47°18' W 002°04'0 0.0
2016-Sep-24 12:12N 47°18' W 002°04'0 0.0
2016-Sep-24 10:30N 47°18' W 002°04'0 0.0
2016-Sep-24 09:33N 47°18' W 002°04'0 0.0
2016-Sep-24 03:33N 47°18' W 002°04'0 0.0
2016-Sep-24 02:33N 47°18' W 002°04'0 0.0
2016-Sep-24 01:33N 47°18' W 002°04'0 0.0
2016-Sep-24 00:33N 47°18' W 002°04'0 0.0
2016-Sep-23 19:30N 47°18' W 002°04'0 0.0
2016-Sep-23 16:08N 47°18' W 002°04'0 0.0
2016-Sep-23 15:32N 47°18' W 002°04'16 8.0
2016-Sep-23 13:33N 47°08' W 002°22'3 0.8
2016-Sep-23 09:30N 47°08' W 002°26'0 0.0
2016-Sep-23 06:32N 47°08' W 002°26'0 0.0
2016-Sep-23 04:30N 47°08' W 002°26'0 0.0
2016-Sep-23 03:32N 47°08' W 002°26'0 0.1
2016-Sep-23 02:32N 47°08' W 002°26'0 0.0
2016-Sep-23 01:32N 47°08' W 002°26'0 0.0
2016-Sep-23 00:32N 47°08' W 002°26'0 0.0
2016-Sep-22 23:32N 47°08' W 002°26'0 0.0
2016-Sep-22 20:31N 47°08' W 002°26'0 0.0
2016-Sep-22 12:32N 47°08' W 002°26'0 0.0
2016-Sep-22 04:32N 47°08' W 002°26'0 0.0
2016-Sep-22 03:31N 47°08' W 002°26'0 0.0
2016-Sep-22 00:32N 47°08' W 002°26'0 0.0
2016-Sep-21 23:31N 47°08' W 002°26'0 0.0
2016-Sep-21 22:32N 47°08' W 002°26'0 0.0
2016-Sep-21 19:32N 47°08' W 002°26'0 0.0
2016-Sep-21 16:30N 47°08' W 002°26'0 0.0
2016-Sep-21 09:32N 47°08' W 002°26'0 0.0
2016-Sep-21 08:32N 47°08' W 002°26'0 0.0
2016-Sep-21 05:31N 47°08' W 002°26'0 0.0
2016-Sep-21 03:32N 47°08' W 002°26'0 0.0
2016-Sep-21 02:32N 47°08' W 002°26'  
Track history (hours):
 
Tides and Currents Weather Stations Pressure Air Temp Water Temp Dewpoint Dewpoint Depression Visibility Wind Speed Wind Dir Waves Ship Positions

Eships Dana

Last reported at 2016-Sep-30 22:08 UTC. Time now 2016-Sep-30 23:50 UTC.
Position N 49°37' W 003°49'.

Length 116 m; draft 5.7 m.

Type: Ship (hazmat cat A). MMSI: 236566000.

Date/timePositionNaut miles runAvg speedWind from/ knotsBaromVisibWave heightAir tempDewpointWater temp
2016-Sep-30 22:08N 49°37' W 003°49'2314.3
2016-Sep-30 20:33N 49°50' W 003°20'9213.0
2016-Sep-30 13:27N 49°47' W 000°57'4214.5
2016-Sep-30 10:33N 49°30' E 000°02'7 3.3
2016-Sep-30 08:33N 49°29' E 000°12'0 0.0
2016-Sep-30 06:33N 49°29' E 000°12'0 0.0
2016-Sep-30 03:33N 49°29' E 000°12'0 0.0
2016-Sep-30 02:33N 49°29' E 000°12'0 0.0
2016-Sep-29 23:33N 49°29' E 000°12'0 0.0
2016-Sep-29 21:33N 49°29' E 000°12'0 0.0
2016-Sep-29 20:33N 49°29' E 000°12'0 0.0
2016-Sep-29 19:33N 49°29' E 000°12'0 0.0
2016-Sep-29 16:33N 49°29' E 000°12'0 0.0
2016-Sep-29 15:33N 49°29' E 000°12'0 0.0
2016-Sep-29 14:33N 49°29' E 000°12'0 0.0
2016-Sep-29 13:33N 49°29' E 000°12'0 0.0
2016-Sep-29 08:33N 49°29' E 000°12'0 0.0
2016-Sep-29 07:33N 49°29' E 000°12'0 0.0
2016-Sep-29 00:33N 49°29' E 000°12'0 0.0
2016-Sep-28 21:33N 49°29' E 000°12'1 0.6
2016-Sep-28 19:33N 49°29' E 000°10'28 9.4
2016-Sep-28 16:33N 49°38' W 000°31'1515.1
2016-Sep-28 15:33N 49°45' W 000°51'3812.6
2016-Sep-28 12:34N 49°56' W 001°47'5012.5
2016-Sep-28 08:33N 49°44' W 003°03'7615.2
2016-Sep-28 03:33N 49°06' W 004°43'1616.0
2016-Sep-28 02:33N 48°58' W 005°05'1616.1
2016-Sep-28 01:33N 48°51' W 005°26'2914.3
2016-Sep-27 23:33N 48°25' W 005°45'5714.3
2016-Sep-27 19:33N 47°39' W 004°54'6312.5
2016-Sep-27 14:33N 47°10' W 003°32'1313.2
2016-Sep-27 13:33N 47°07' W 003°13'3611.8
2016-Sep-27 10:32N 47°08' W 002°21'15 1.1
2016-Sep-26 20:21N 47°18' W 002°04'0 0.0
2016-Sep-26 19:12N 47°18' W 002°04'0 0.0
2016-Sep-26 15:33N 47°18' W 002°04'0 0.0
2016-Sep-26 08:30N 47°18' W 002°04'0 0.0
2016-Sep-26 02:30N 47°18' W 002°04'0 0.0
2016-Sep-26 01:33N 47°18' W 002°04'0 0.0
2016-Sep-26 00:30N 47°18' W 002°04'0 0.0
2016-Sep-25 21:33N 47°18' W 002°04'0 0.0
2016-Sep-25 17:30N 47°18' W 002°04'0 0.0
2016-Sep-25 15:30N 47°18' W 002°04'0 0.0
2016-Sep-25 12:30N 47°18' W 002°04'0 0.0
2016-Sep-25 11:30N 47°18' W 002°04'0 0.0
2016-Sep-25 10:30N 47°18' W 002°04'0 0.0
2016-Sep-25 09:27N 47°18' W 002°04'0 0.0
2016-Sep-25 07:30N 47°18' W 002°04'0 0.0
2016-Sep-25 04:33N 47°18' W 002°04'0 0.0
2016-Sep-25 00:33N 47°18' W 002°04'0 0.0
2016-Sep-24 22:24N 47°18' W 002°04'0 0.0
2016-Sep-24 21:32N 47°18' W 002°04'0 0.0
2016-Sep-24 19:24N 47°18' W 002°04'0 0.0
2016-Sep-24 18:33N 47°18' W 002°04'0 0.0
2016-Sep-24 17:30N 47°18' W 002°04'0 0.0
2016-Sep-24 16:30N 47°18' W 002°04'0 0.0
2016-Sep-24 14:30N 47°18' W 002°04'0 0.0
2016-Sep-24 12:12N 47°18' W 002°04'0 0.0
2016-Sep-24 10:30N 47°18' W 002°04'0 0.0
2016-Sep-24 09:33N 47°18' W 002°04'0 0.0
2016-Sep-24 03:33N 47°18' W 002°04'0 0.0
2016-Sep-24 02:33N 47°18' W 002°04'0 0.0
2016-Sep-24 01:33N 47°18' W 002°04'0 0.0
2016-Sep-24 00:33N 47°18' W 002°04'0 0.0
2016-Sep-23 19:30N 47°18' W 002°04'0 0.0
2016-Sep-23 16:08N 47°18' W 002°04'0 0.0
2016-Sep-23 15:32N 47°18' W 002°04'16 8.0
2016-Sep-23 13:33N 47°08' W 002°22'3 0.8
2016-Sep-23 09:30N 47°08' W 002°26'0 0.0
2016-Sep-23 06:32N 47°08' W 002°26'0 0.0
2016-Sep-23 04:30N 47°08' W 002°26'0 0.0
2016-Sep-23 03:32N 47°08' W 002°26'0 0.1
2016-Sep-23 02:32N 47°08' W 002°26'0 0.0
2016-Sep-23 01:32N 47°08' W 002°26'0 0.0
2016-Sep-23 00:32N 47°08' W 002°26'0 0.0
2016-Sep-22 23:32N 47°08' W 002°26'0 0.0
2016-Sep-22 20:31N 47°08' W 002°26'0 0.0
2016-Sep-22 12:32N 47°08' W 002°26'0 0.0
2016-Sep-22 04:32N 47°08' W 002°26'0 0.0
2016-Sep-22 03:31N 47°08' W 002°26'0 0.0
2016-Sep-22 00:32N 47°08' W 002°26'0 0.0
2016-Sep-21 23:31N 47°08' W 002°26'0 0.0
2016-Sep-21 22:32N 47°08' W 002°26'0 0.0
2016-Sep-21 19:32N 47°08' W 002°26'0 0.0
2016-Sep-21 16:30N 47°08' W 002°26'0 0.0
2016-Sep-21 09:32N 47°08' W 002°26'0 0.0
2016-Sep-21 08:32N 47°08' W 002°26'0 0.0
2016-Sep-21 05:31N 47°08' W 002°26'0 0.0
2016-Sep-21 03:32N 47°08' W 002°26'0 0.0
2016-Sep-21 02:32N 47°08' W 002°26'  

Dump ship's entire track history